• Join FlightAware (Why Join?)
  • Login
  • US Flag 
12:28AM EDT


 

Airport Tracker/Info


-or-


 

Live Flight TrackerFlight Track Log ✈ CTL309 ✈ 23-Apr-2013 ✈ KOSU - KHAO

Flight Track Log - Related Links

Times and Time Zones

All times are in EDT time to prevent confusion due to time zone crossing. See the CTL309 flight status page for this flight to view local times or setup timezone preferences in your user account.

Time Position Orientation Groundspeed Altitude Reporting Facility
EDT Latitude Longitude Course Direction KTS MPH feet Rate Location/Type
03:40AM 40.0692 -83.1603 239° Southwest 160 184 2,100  Level Indianapolis Center
03:41AM 40.0469 -83.2094 239° Southwest 156 180 2,500 300 Climbing Indianapolis Center
03:42AM 40.0378 -83.2319 242° Southwest 155 178 2,600 180 Climbing Indianapolis Center
03:42AM 40.0244 -83.2586 237° Southwest 161 185 2,700 300 Climbing Indianapolis Center
03:43AM 40.0139 -83.2811 239° Southwest 158 182 2,900 300 Climbing Indianapolis Center
03:43AM 40.0003 -83.3072 236° Southwest 157 181 3,000 180 Climbing Indianapolis Center
03:44AM 39.9892 -83.3297 237° Southwest 159 183 3,100 120 Climbing Indianapolis Center
03:44AM 39.9714 -83.3611 234° Southwest 161 185 3,200 180 Climbing Indianapolis Center
03:45AM 39.9644 -83.3783 242° Southwest 160 184 3,300 240 Climbing Indianapolis Center
03:45AM 39.9489 -83.4100 237° Southwest 161 185 3,500 240 Climbing Indianapolis Center
03:46AM 39.9406 -83.4275 238° Southwest 160 184 3,600 300 Climbing Indianapolis Center
03:46AM 39.9267 -83.4564 238° Southwest 156 180 3,800 360 Climbing Indianapolis Center
03:47AM 39.9158 -83.4744 232° Southwest 158 182 4,000 240 Climbing Indianapolis Center
03:47AM 39.9025 -83.5022 238° Southwest 155 178 4,100  Climbing Indianapolis Center
03:48AM 39.8919 -83.5211 234° Southwest 156 180 4,000  Descending Indianapolis Center
03:48AM 39.8781 -83.5508 239° Southwest 162 186 4,100 60 Climbing Indianapolis Center
03:49AM 39.8675 -83.5689 233° Southwest 158 182 4,100  Level Indianapolis Center
03:49AM 39.8536 -83.5969 237° Southwest 157 181 4,100  Level Indianapolis Center
03:50AM 39.8436 -83.6169 237° Southwest 158 182 4,100  Level Indianapolis Center
03:50AM 39.8292 -83.6453 236° Southwest 155 178 4,100  Level Indianapolis Center
03:51AM 39.8211 -83.6644 241° Southwest 155 178 4,100  Level Indianapolis Center
03:51AM 39.8067 -83.6942 238° Southwest 154 177 4,100  Level Indianapolis Center
03:52AM 39.7986 -83.7119 239° Southwest 154 177 4,100  Level Indianapolis Center
03:52AM 39.7844 -83.7403 237° Southwest 156 180 4,100  Level Indianapolis Center
03:53AM 39.7761 -83.7611 243° Southwest 155 178 4,100  Level Indianapolis Center
03:53AM 39.7619 -83.7889 236° Southwest 158 182 4,100  Level Indianapolis Center
03:54AM 39.7542 -83.8100 244° Southwest 156 180 4,100  Level Indianapolis Center
03:54AM 39.7414 -83.8381 239° Southwest 154 177 4,100  Level Indianapolis Center
03:55AM 39.7314 -83.8586 238° Southwest 156 180 4,100  Level Indianapolis Center
03:55AM 39.7186 -83.8894 242° Southwest 159 183 4,100  Level Indianapolis Center
03:56AM 39.7078 -83.9078 232° Southwest 157 181 4,100  Level Indianapolis Center
03:56AM 39.6922 -83.9347 233° Southwest 157 181 4,100  Level Indianapolis Center
03:57AM 39.6825 -83.9539 237° Southwest 156 180 4,100  Level Indianapolis Center
03:57AM 39.6678 -83.9806 234° Southwest 155 178 4,100  Level Indianapolis Center
03:58AM 39.6558 -83.9989 230° Southwest 156 180 4,100  Level Indianapolis Center
03:58AM 39.6411 -84.0258 235° Southwest 154 177 4,100  Level Indianapolis Center
03:59AM 39.6317 -84.0464 239° Southwest 156 180 4,100  Level Indianapolis Center
04:00AM 39.6092 -84.0953 239° Southwest 156 180 4,100 -180 Level Indianapolis Center
04:01AM 39.5842 -84.1436 236° Southwest 157 181 3,800 -420 Descending Indianapolis Center
04:02AM 39.5600 -84.1953 239° Southwest 162 186 3,300 -300 Descending Indianapolis Center
04:03AM 39.5356 -84.2431 236° Southwest 163 188 3,300  Level Indianapolis Center
04:05AM 39.4697 -84.2975 213° Southwest  Level FlightAware Approximate
04:12AM 39.3500 -84.5167 229° Southwest  Level FlightAware Approximate
04:13AM 39.3638 -84.5219 229° Southwest  Level Estimated
04:14AM 39.3638 -84.5219 229° Southwest  Level Estimated
04:15AM 39.3638 -84.5219 229° Southwest  Level Estimated
04:16AM 39.3638 -84.5219 229° Southwest  Level Estimated
04:17AM 39.3638 -84.5219 229° Southwest  Level Estimated
04:18AM 39.3638 -84.5219 229° Southwest  Level Estimated
04:19AM 39.3638 -84.5219 229° Southwest  Level Estimated
04:20AM 39.3638 -84.5219 229° Southwest  Level Estimated